Data for 09/28/2015

Time Sea-Level Adjusted Pressure Absolute Pressure Temperature Relative Humidity Dew Point   
(mb) (inHg) (mb) (inHg) (C) (F) (%) (C) (F)
00:05 1020 30.12 849 25.07 12.3 54.1 50 2.2 35.9
00:10 1020 30.12 849 25.07 12.2 54 50 2.2 36
00:15 1020 30.12 849 25.07 12.1 53.8 50 2.1 35.8
00:20 1020 30.12 849 25.07 12.1 53.7 50 2 35.6
00:25 1020 30.12 849 25.07 12 53.5 50 1.8 35.2
00:30 1020 30.12 849 25.07 11.9 53.5 50 1.8 35.2
00:35 1020 30.12 849 25.07 11.9 53.4 50 1.7 35.1
00:40 1020 30.12 849 25.07 11.8 53.3 50 1.7 35
00:45 1020 30.12 849 25.07 11.9 53.3 50 1.8 35.3
00:50 1020 30.12 849 25.07 11.7 53.1 50 1.8 35.2
00:55 1020 30.12 849 25.07 11.7 53.1 50 1.8 35.2
01:00 1020 30.12 849 25.07 11.7 53 51 1.8 35.3
01:05 1020 30.12 849 25.07 11.6 52.8 51 1.8 35.3
01:10 1020 30.12 849 25.07 11.5 52.7 51 1.8 35.3
01:15 1020 30.12 849 25.07 11.5 52.7 51 1.7 35.1
01:20 1020 30.12 849 25.07 11.4 52.5 51 1.7 35.1
01:25 1020 30.12 849 25.07 11.4 52.5 51 1.6 34.9
01:30 1020 30.12 849 25.07 11.3 52.4 51 1.6 34.9
01:35 1020 30.12 849 25.07 11.3 52.3 51 1.6 34.8
01:40 1020 30.12 849 25.07 11.3 52.3 51 1.5 34.6
01:45 1020 30.12 849 25.07 11.3 52.3 51 1.6 34.8
01:50 1020 30.12 849 25.07 11.2 52.1 51 1.6 34.9
01:55 1020 30.12 849 25.07 11.1 52 52 1.6 34.8
02:00 1020 30.12 849 25.07 11.1 51.9 52 1.7 35
02:05 1020 30.12 849 25.07 11 51.8 52 1.7 35
02:10 1020 30.12 850 25.1 11 51.9 52 1.7 35
02:15 1020 30.12 850 25.1 11 51.8 52 1.7 35.1
02:20 1020 30.12 850 25.1 11 51.8 52 1.7 35
02:25 1020 30.12 850 25.1 11 51.7 53 1.7 35.1
02:30 1020 30.12 850 25.1 10.9 51.6 53 1.8 35.3
02:35 1020 30.12 850 25.1 10.8 51.4 54 1.9 35.4
02:40 1020 30.12 850 25.1 10.7 51.2 54 1.9 35.4
02:45 1020 30.12 850 25.1 10.5 51 55 1.8 35.3
02:50 1020 30.12 850 25.1 10.5 50.9 55 1.8 35.3
02:55 1020 30.12 850 25.1 10.4 50.7 55 1.9 35.4
03:00 1020 30.12 850 25.1 10.2 50.4 56 2 35.5
03:05 1020 30.12 850 25.1 10.1 50.2 57 1.9 35.5
03:10 1020 30.12 849 25.07 10 50.1 57 1.9 35.4
03:15 1020 30.12 849 25.07 10 50 57 2 35.6
03:20 1020 30.12 849 25.07 10 50 57 1.9 35.4
03:25 1020 30.12 849 25.07 10 50 57 1.9 35.4
03:30 1020 30.12 849 25.07 9.9 49.9 57 1.8 35.3
03:35 1020 30.12 849 25.07 9.9 49.7 57 1.9 35.4
03:40 1020 30.12 849 25.07 9.8 49.7 58 1.9 35.5
03:45 1020 30.12 850 25.1 9.7 49.4 58 1.9 35.5
03:50 1020 30.12 850 25.1 9.7 49.4 58 1.9 35.4
03:55 1020 30.12 850 25.1 9.6 49.2 59 2 35.6
04:00 1020 30.12 850 25.1 9.5 49.1 60 2.1 35.7
04:05 1020 30.12 850 25.1 9.3 48.8 61 2.2 36
04:10 1020 30.12 850 25.1 9.1 48.4 61 2.1 35.9
04:15 1020 30.12 850 25.1 9 48.3 62 2.2 35.9
04:20 1020 30.12 850 25.1 8.9 48 62 2.1 35.9
04:25 1020 30.12 850 25.1 8.7 47.6 63 2.1 35.8
04:30 1021 30.15 850 25.1 8.6 47.4 64 2.2 35.9
04:35 1021 30.15 850 25.1 8.5 47.3 64 2.2 36
04:40 1021 30.15 850 25.1 8.5 47.3 64 2.2 36
04:45 1021 30.15 850 25.1 8.5 47.3 64 2.2 36
04:50 1021 30.15 850 25.1 8.4 47.2 64 2.1 35.8
04:55 1021 30.15 850 25.1 8.4 47 65 2.1 35.8
05:00 1021 30.15 850 25.1 8.3 46.9 65 2.1 35.7
05:05 1021 30.15 850 25.1 8.2 46.8 64 1.9 35.5
05:10 1021 30.15 850 25.1 8.2 46.7 64 1.9 35.4
05:15 1021 30.15 850 25.1 8.2 46.7 64 1.8 35.2
05:20 1021 30.15 850 25.1 8.1 46.6 64 1.8 35.2
05:25 1021 30.15 850 25.1 8.1 46.6 64 1.7 35.1
05:30 1021 30.15 850 25.1 8.1 46.6 64 1.7 35
05:35 1021 30.15 850 25.1 8.2 46.7 63 1.6 35
05:40 1021 30.15 850 25.1 8.2 46.7 63 1.6 35
05:45 1021 30.15 850 25.1 8.1 46.6 63 1.6 34.9
05:50 1021 30.15 850 25.1 8 46.3 64 1.7 35.1
05:55 1021 30.15 850 25.1 7.9 46.2 65 1.6 34.9
06:00 1021 30.15 850 25.1 7.9 46.2 65 1.6 34.9
06:05 1021 30.15 850 25.1 7.8 46 65 1.6 34.9
06:10 1021 30.15 850 25.1 7.8 46 64 1.5 34.7
06:15 1021 30.15 850 25.1 7.8 46 64 1.4 34.6
06:20 1021 30.15 850 25.1 7.8 46 64 1.4 34.5
06:25 1021 30.15 850 25.1 7.8 46 64 1.3 34.4
06:30 1021 30.15 850 25.1 7.8 46 64 1.5 34.6
06:35 1021 30.15 850 25.1 7.7 45.9 64 1.4 34.5
06:40 1021 30.15 851 25.13 7.7 45.9 65 1.5 34.7
06:45 1021 30.15 851 25.13 7.7 45.8 64 1.4 34.5
06:50 1021 30.15 851 25.13 7.8 46 64 1.4 34.5
06:55 1021 30.15 851 25.13 7.9 46.2 63 1.4 34.5
07:00 1021 30.15 851 25.13 8 46.4 63 1.4 34.6
07:05 1021 30.15 851 25.13 8.1 46.6 62 1.4 34.4
07:10 1021 30.15 851 25.13 8.2 46.7 62 1.3 34.4
07:15 1021 30.15 851 25.13 8.3 46.9 61 1.3 34.3
07:20 1021 30.15 851 25.13 8.5 47.2 60 1.2 34.2
07:25 1022 30.18 851 25.13 8.7 47.6 60 1.5 34.7
07:30 1022 30.18 851 25.13 8.8 47.9 60 1.4 34.6
07:35 1022 30.18 851 25.13 8.8 47.8 60 1.5 34.7
07:40 1022 30.18 851 25.13 8.9 48 60 1.5 34.7
07:45 1022 30.18 851 25.13 9.1 48.3 58 1.3 34.3
07:50 1022 30.18 851 25.13 9.3 48.7 58 1.5 34.6
07:55 1022 30.18 851 25.13 9.6 49.2 57 1.5 34.8
08:00 1022 30.18 851 25.13 9.5 49 57 1.4 34.5
08:05 1022 30.18 851 25.13 9.8 49.6 56 1.6 34.8
08:10 1022 30.18 851 25.13 10 50 56 1.6 35
08:15 1022 30.18 851 25.13 10.3 50.6 55 1.6 35
08:20 1022 30.18 851 25.13 10.5 51 54 1.7 35.1
08:25 1022 30.18 851 25.13 11.2 52.1 52 1.6 34.9
08:30 1022 30.18 851 25.13 11 51.7 53 1.8 35.2
08:35 1022 30.18 851 25.13 11 51.9 52 1.5 34.8
08:40 1022 30.18 851 25.13 11.5 52.6 50 1.5 34.7
08:45 1022 30.18 851 25.13 12.5 54.5 48 1.8 35.2
08:50 1022 30.18 851 25.13 12.4 54.3 49 2 35.7
08:55 1022 30.18 851 25.13 12.4 54.4 49 2 35.6
09:00 1022 30.18 851 25.13 12.5 54.4 48 1.7 35
09:05 1022 30.18 851 25.13 12.9 55.1 46 1.6 34.9
09:10 1022 30.18 851 25.13 13.4 56.1 45 1.9 35.5
09:15 1022 30.18 851 25.13 14 57.3 42 1.6 34.8
09:20 1022 30.18 851 25.13 14.4 58 43 2.2 36
09:25 1022 30.18 851 25.13 13.7 56.6 43 1.6 34.8
09:30 1022 30.18 851 25.13 14.2 57.5 42 1.6 34.8
09:35 1022 30.18 851 25.13 13.7 56.6 42 1.1 34
09:40 1022 30.18 851 25.13 14.4 58 35 -0.7 30.7
09:45 1022 30.18 851 25.13 14.3 57.7 36 -0.5 31.2
09:50 1022 30.18 851 25.13 14.8 58.6 30 -2.5 27.5
09:55 1022 30.18 851 25.13 14.5 58.1 34 -1.2 29.9
10:00 1022 30.18 851 25.13 14.7 58.5 32 -1.6 29.2
10:05 1022 30.18 851 25.13 14.2 57.5 36 -0.6 30.8
10:10 1022 30.18 851 25.13 13.8 56.8 34 -1.7 28.9
10:15 1022 30.18 851 25.13 14.6 58.3 31 -2.2 28.1
10:20 1022 30.18 851 25.13 14.9 58.7 31 -2.1 28.1
10:25 1022 30.18 851 25.13 15.6 60 29 -2.4 27.7
10:30 1022 30.18 851 25.13 15.8 60.4 30 -1.8 28.8
10:35 1022 30.18 851 25.13 15.9 60.7 30 -1.7 29
10:40 1022 30.18 851 25.13 15.7 60.2 30 -1.7 28.9
10:45 1022 30.18 851 25.13 14.7 58.5 33 -1.5 29.3
10:50 1022 30.18 851 25.13 14.6 58.4 33 -1.5 29.3
10:55 1022 30.18 851 25.13 14.6 58.2 31 -2.1 28.1
11:00 1022 30.18 851 25.13 15.6 60 26 -3.8 25.2
11:05 1022 30.18 851 25.13 16 60.8 30 -1.5 29.3
11:10 1022 30.18 851 25.13 15.9 60.6 29 -2.1 28.2
11:15 1022 30.18 851 25.13 16.7 62 27 -2.5 27.4
11:20 1022 30.18 851 25.13 17.1 62.7 28 -1.5 29.3
11:25 1022 30.18 851 25.13 16.9 62.4 26 -2.5 27.5
11:30 1022 30.18 851 25.13 17.6 63.7 26 -1.8 28.7
11:35 1021 30.15 851 25.13 17.3 63.2 27 -2 28.4
11:40 1021 30.15 851 25.13 17.1 62.8 29 -0.8 30.6
11:45 1021 30.15 851 25.13 17.5 63.5 28 -0.9 30.3
11:50 1022 30.18 851 25.13 17.4 63.3 29 -0.6 30.9
11:55 1021 30.15 851 25.13 17.5 63.5 28 -1 30.3
12:00 1021 30.15 851 25.13 17.6 63.8 30 -0.2 31.7
12:05 1021 30.15 851 25.13 16.7 62.1 29 -1.3 29.6
12:10 1021 30.15 850 25.1 17.8 64 27 -1.4 29.5
12:15 1021 30.15 850 25.1 18.5 65.3 27 -0.5 31
12:20 1021 30.15 850 25.1 18.2 64.7 28 -0.5 31.1
12:25 1021 30.15 850 25.1 17.7 63.9 29 -0.2 31.7
12:30 1021 30.15 850 25.1 17.6 63.6 28 -1 30.3
12:35 1021 30.15 850 25.1 18.4 65.2 27 -0.7 30.7
12:40 1021 30.15 850 25.1 17.9 64.1 27 -1.3 29.6
12:45 1021 30.15 850 25.1 17.1 62.7 29 -0.9 30.5
12:50 1021 30.15 850 25.1 18 64.4 26 -1.4 29.5
12:55 1021 30.15 850 25.1 18.7 65.7 27 -0.3 31.5
13:00 1021 30.15 850 25.1 17.6 63.6 31 0.1 32.3
13:05 1021 30.15 850 25.1 18.1 64.5 27 -1 30.3
13:10 1021 30.15 850 25.1 18.8 65.9 26 -0.8 30.5
13:15 1021 30.15 850 25.1 18.8 65.9 27 -0.3 31.4
13:20 1021 30.15 850 25.1 18.9 66 26 -0.6 30.9
13:25 1021 30.15 850 25.1 19 66.2 27 -0.4 31.3
13:30 1021 30.15 850 25.1 17.8 64 29 -0.5 31.2
13:35 1021 30.15 850 25.1 18.3 65 29 -0.1 31.8
13:40 1020 30.12 850 25.1 18.6 65.5 27 -0.8 30.5
13:45 1020 30.12 850 25.1 19.2 66.6 26 -0.5 31.1
13:50 1020 30.12 850 25.1 19.7 67.4 26 -0.1 31.8
13:55 1020 30.12 850 25.1 19.8 67.7 26 -0.3 31.5
14:00 1020 30.12 850 25.1 20 67.9 26 -0.1 31.7
14:05 1020 30.12 850 25.1 20 68 25 -0.4 31.3
14:10 1020 30.12 849 25.07 19.7 67.5 27 0.2 32.3
14:15 1020 30.12 849 25.07 19.7 67.5 26 -0 32
14:20 1020 30.12 849 25.07 20.3 68.6 26 0.3 32.5
14:25 1020 30.12 849 25.07 20.6 69 25 -0 32
14:30 1020 30.12 849 25.07 20.2 68.4 26 0.5 32.8
14:35 1020 30.12 849 25.07 20.1 68.1 26 0.1 32.2
14:40 1020 30.12 849 25.07 19.9 67.8 27 0.3 32.5
14:45 1020 30.12 849 25.07 19.6 67.4 26 0 32
14:50 1020 30.12 849 25.07 20.1 68.1 26 -0.1 31.9
14:55 1020 30.12 849 25.07 20 68.1 27 0.5 32.9
15:00 1020 30.12 849 25.07 19 66.1 27 -0.1 31.8
15:05 1020 30.12 849 25.07 19.7 67.4 26 -0.2 31.6
15:10 1020 30.12 849 25.07 20.3 68.5 26 0.2 32.4
15:15 1020 30.12 849 25.07 20.2 68.4 27 0.9 33.5
15:20 1020 30.12 849 25.07 20.3 68.6 25 -0.1 31.9
15:25 1020 30.12 849 25.07 20.6 69 25 -0.2 31.7
15:30 1020 30.12 849 25.07 19.8 67.6 27 0.3 32.5
15:35 1020 30.12 849 25.07 20.2 68.3 26 0.3 32.6
15:40 1020 30.12 849 25.07 19.8 67.7 26 -0.3 31.5
15:45 1020 30.12 849 25.07 20.1 68.2 26 0 32
15:50 1020 30.12 849 25.07 20.7 69.2 24 -0.4 31.3
15:55 1020 30.12 849 25.07 20.9 69.6 24 -0.5 31.1
16:00 1020 30.12 849 25.07 20.7 69.3 25 -0 31.9
16:05 1020 30.12 849 25.07 20.7 69.3 25 0 32
16:10 1020 30.12 849 25.07 20.3 68.5 25 -0.1 31.8
16:15 1020 30.12 849 25.07 20.3 68.6 24 -0.5 31.1
16:20 1020 30.12 849 25.07 20 68 25 -0.4 31.3
16:25 1020 30.12 849 25.07 19.2 66.6 26 -0.4 31.2
16:30 1020 30.12 849 25.07 19.6 67.3 24 -1.1 30.1
16:35 1020 30.12 849 25.07 20.3 68.5 24 -1 30.2
16:40 1020 30.12 849 25.07 20.4 68.7 24 -0.7 30.7
16:45 1020 30.12 849 25.07 20.4 68.8 23 -1 30.2
16:50 1020 30.12 849 25.07 20 67.9 24 -1.3 29.7
16:55 1020 30.12 849 25.07 19.9 67.8 25 -0.8 30.6
17:00 1020 30.12 849 25.07 19.4 66.9 25 -1 30.2
17:05 1020 30.12 849 25.07 18.8 65.9 25 -1.2 29.8
17:10 1020 30.12 849 25.07 18.5 65.3 26 -1.1 30.1
17:15 1020 30.12 849 25.07 18.3 65 27 -0.9 30.4
17:20 1020 30.12 849 25.07 18.3 64.9 27 -1.1 30
17:25 1020 30.12 849 25.07 18.2 64.8 26 -1.5 29.3
17:30 1020 30.12 849 25.07 18.2 64.7 26 -1.4 29.4
17:35 1020 30.12 849 25.07 18 64.3 27 -1.4 29.5
17:40 1020 30.12 849 25.07 17.8 64.1 27 -1.1 30
17:45 1020 30.12 849 25.07 17.7 63.9 28 -1.1 30.1
17:50 1020 30.12 849 25.07 17.6 63.6 27 -1.4 29.5
17:55 1020 30.12 849 25.07 17.1 62.8 37 2.3 36.1
18:00 1020 30.12 849 25.07 16.1 61.1 39 2.2 36
18:05 1020 30.12 849 25.07 15.6 60 41 2.3 36.1
18:10 1020 30.12 849 25.07 15.3 59.5 41 2.3 36.2
18:15 1020 30.12 849 25.07 15.1 59.1 43 2.5 36.6
18:20 1020 30.12 849 25.07 14.8 58.7 43 2.6 36.7
18:25 1020 30.12 849 25.07 14.5 58.1 44 2.5 36.5
18:30 1020 30.12 849 25.07 14.2 57.6 45 2.6 36.6
18:35 1020 30.12 849 25.07 14 57.1 46 2.7 36.9
18:40 1020 30.12 849 25.07 13.7 56.7 47 2.7 36.8
18:45 1020 30.12 849 25.07 13.6 56.4 47 2.7 36.8
18:50 1020 30.12 849 25.07 13.4 56.1 48 2.6 36.7
18:55 1020 30.12 849 25.07 13.2 55.7 48 2.4 36.4
19:00 1020 30.12 850 25.1 12.9 55.3 48 2.3 36.2
19:05 1020 30.12 850 25.1 12.7 54.9 49 2.4 36.3
19:10 1020 30.12 850 25.1 12.4 54.3 52 2.7 36.9
19:15 1020 30.12 850 25.1 11.8 53.3 51 2 35.6
19:20 1021 30.15 850 25.1 11.7 53 47 1 33.7
19:25 1021 30.15 850 25.1 12 53.6 46 0.9 33.6
19:30 1021 30.15 850 25.1 11.8 53.3 48 1.1 34.1
19:35 1021 30.15 850 25.1 11.8 53.3 46 0.6 33.2
19:40 1021 30.15 850 25.1 12.1 53.7 45 0.5 33
19:45 1021 30.15 850 25.1 12.1 53.8 45 0.6 33.1
19:50 1021 30.15 850 25.1 12 53.6 44 0 32.1
19:55 1021 30.15 850 25.1 11.9 53.5 45 0.4 32.8
20:00 1021 30.15 850 25.1 11.7 53 46 0.5 33
20:05 1021 30.15 850 25.1 11.5 52.8 44 -0.2 31.6
20:10 1021 30.15 850 25.1 11.7 53 44 -0.1 31.9
20:15 1021 30.15 850 25.1 11.8 53.2 44 0 32
20:20 1021 30.15 850 25.1 11.5 52.7 46 0.2 32.4
20:25 1021 30.15 850 25.1 11.4 52.4 45 0 32
20:30 1021 30.15 850 25.1 11.2 52.2 47 0.2 32.4
20:35 1021 30.15 850 25.1 11 51.8 47 0.3 32.5
20:40 1021 30.15 850 25.1 10.9 51.5 49 0.5 33
20:45 1021 30.15 850 25.1 10.6 51.1 49 0.3 32.5
20:50 1021 30.15 850 25.1 10.6 51.1 49 0.5 32.9
20:55 1021 30.15 850 25.1 10.7 51.3 48 0.3 32.6
21:00 1021 30.15 850 25.1 10.7 51.2 49 0.5 32.9
21:05 1021 30.15 850 25.1 10.7 51.3 49 0.4 32.7
21:10 1021 30.15 850 25.1 10.7 51.2 49 0.5 32.8
21:15 1021 30.15 850 25.1 10.7 51.2 48 0.2 32.4
21:20 1021 30.15 850 25.1 10.7 51.2 48 0.1 32.2
21:25 1021 30.15 850 25.1 10.7 51.3 49 0.4 32.7
21:30 1021 30.15 850 25.1 10.5 50.9 48 -0.1 31.9
21:35 1021 30.15 850 25.1 10.3 50.6 49 0.2 32.3
21:40 1021 30.15 850 25.1 10 50 50 0.2 32.3
21:45 1021 30.15 850 25.1 9.8 49.7 51 0.3 32.6
21:50 1021 30.15 850 25.1 10.2 50.3 51 0.5 32.8
21:55 1021 30.15 850 25.1 10.6 51 51 0.9 33.6
22:00 1021 30.15 850 25.1 10.1 50.1 51 0.6 33
22:05 1021 30.15 850 25.1 9.7 49.4 53 0.6 33.1
22:10 1021 30.15 850 25.1 9.7 49.5 53 0.6 33.1
22:15 1021 30.15 850 25.1 9.7 49.5 53 0.6 33.1
22:20 1021 30.15 850 25.1 9.7 49.4 54 0.8 33.4
22:25 1021 30.15 850 25.1 9.8 49.7 54 1 33.7
22:30 1021 30.15 850 25.1 10 50 53 0.9 33.6
22:35 1021 30.15 850 25.1 10.1 50.2 53 1.1 34
22:40 1021 30.15 850 25.1 9.9 49.9 54 1.1 34.1
22:45 1021 30.15 850 25.1 9.7 49.4 55 1.1 33.9
22:50 1021 30.15 850 25.1 9.5 49.1 53 0.5 32.9
22:55 1021 30.15 850 25.1 9.6 49.3 53 0.5 32.9
23:00 1021 30.15 850 25.1 9.8 49.6 49 -0.3 31.5
23:05 1021 30.15 850 25.1 10.3 50.6 52 0.9 33.5
23:10 1021 30.15 850 25.1 10.9 51.6 51 1.2 34.1
23:15 1021 30.15 850 25.1 10.9 51.5 50 0.9 33.5
23:20 1021 30.15 850 25.1 10.6 51.1 52 1.1 34
23:25 1021 30.15 850 25.1 10.6 51 53 1.3 34.3
23:30 1021 30.15 850 25.1 10.3 50.5 53 1.3 34.3
23:35 1021 30.15 850 25.1 10.1 50.2 53 1 33.9
23:40 1021 30.15 850 25.1 10 49.9 53 0.7 33.3
23:45 1021 30.15 850 25.1 9.9 49.8 55 1.3 34.3
23:50 1021 30.15 850 25.1 9.8 49.6 54 0.9 33.6
23:55 1021 30.15 850 25.1 9.7 49.4 54 0.8 33.5
24:00 1021 30.15 850 25.1 9.6 49.3 54 0.8 33.4